Terminal Aerodrome Forecast
Issued by NWS

Home | Current Version | Previous Version | Text Only | Print | Product List | Glossary On
Versions: 1 2 3 4 5 6 7 8 9 10 11 12 13 14 15 16 17 18 19 20 21 22 23 24 25 26 27
000
FTUS44 KSJT 022300
TAFSOA
TAF
KSOA 022320Z 0300/0324 17008KT P6SM FEW040 BKN250
     FM031000 17008KT P6SM OVC012
     FM031600 18012G20KT P6SM FEW050 BKN250=

USA.gov is the U.S. government's official web portal to all federal, state and local government web resources and services.